sensor_id;sensor_type;location;lat;lon;timestamp;pressure;altitude;pressure_sealevel;temperature;humidity
39823;BME280;25499;53.958;10.970;2023-02-15T09:59:59;102645.88;;;0.68;100.00
39823;BME280;25499;53.958;10.970;2023-02-15T10:08:26;102634.88;;;0.69;100.00
39823;BME280;25499;53.958;10.970;2023-02-15T10:11:12;102633.59;;;0.76;100.00
39823;BME280;25499;53.958;10.970;2023-02-15T10:20:00;102620.63;;;0.86;100.00
39823;BME280;25499;53.958;10.970;2023-02-15T10:25:06;102610.81;;;1.05;100.00
39823;BME280;25499;53.958;10.970;2023-02-15T10:27:45;102610.72;;;1.04;100.00
39823;BME280;25499;53.958;10.970;2023-02-15T10:30:13;102614.75;;;1.00;100.00
39823;BME280;25499;53.958;10.970;2023-02-15T10:33:04;102605.16;;;0.98;100.00
39823;BME280;25499;53.958;10.970;2023-02-15T10:38:42;102615.66;;;1.14;100.00
39823;BME280;25499;53.958;10.970;2023-02-15T10:41:39;102608.63;;;1.11;100.00
39823;BME280;25499;53.958;10.970;2023-02-15T10:44:11;102609.63;;;1.27;100.00
39823;BME280;25499;53.958;10.970;2023-02-15T10:58:13;102585.34;;;1.35;100.00
39823;BME280;25499;53.958;10.970;2023-02-15T11:01:00;102588.41;;;1.29;100.00
39823;BME280;25499;53.958;10.970;2023-02-15T11:06:33;102586.53;;;1.40;100.00
39823;BME280;25499;53.958;10.970;2023-02-15T11:09:03;102588.53;;;1.44;100.00
39823;BME280;25499;53.958;10.970;2023-02-15T11:11:36;102586.53;;;1.40;100.00
39823;BME280;25499;53.958;10.970;2023-02-15T11:17:13;102582.00;;;1.49;100.00
39823;BME280;25499;53.958;10.970;2023-02-15T11:22:28;102571.53;;;1.46;100.00
39823;BME280;25499;53.958;10.970;2023-02-15T11:24:54;102582.06;;;1.64;100.00
39823;BME280;25499;53.958;10.970;2023-02-15T11:27:26;102564.59;;;1.59;100.00
39823;BME280;25499;53.958;10.970;2023-02-15T11:30:00;102564.38;;;1.69;100.00
39823;BME280;25499;53.958;10.970;2023-02-15T11:32:33;102559.78;;;1.63;100.00
39823;BME280;25499;53.958;10.970;2023-02-15T11:35:11;102556.09;;;1.73;100.00
39823;BME280;25499;53.958;10.970;2023-02-15T11:40:47;102542.22;;;1.84;100.00
39823;BME280;25499;53.958;10.970;2023-02-15T11:43:20;102524.88;;;1.80;100.00
39823;BME280;25499;53.958;10.970;2023-02-15T11:45:48;102535.97;;;1.94;100.00
39823;BME280;25499;53.958;10.970;2023-02-15T11:48:14;102536.97;;;1.96;100.00
39823;BME280;25499;53.958;10.970;2023-02-15T11:50:42;102531.38;;;1.89;100.00
39823;BME280;25499;53.958;10.970;2023-02-15T11:53:14;102531.38;;;1.89;100.00
39823;BME280;25499;53.958;10.970;2023-02-15T11:55:43;102533.84;;;1.87;100.00
39823;BME280;25499;53.958;10.970;2023-02-15T11:58:49;102533.94;;;1.89;100.00
39823;BME280;25499;53.958;10.970;2023-02-15T12:06:04;102532.63;;;1.95;100.00
39823;BME280;25499;53.958;10.970;2023-02-15T12:08:39;102530.84;;;1.94;100.00
39823;BME280;25499;53.958;10.970;2023-02-15T12:11:09;102528.91;;;2.05;100.00
39823;BME280;25499;53.958;10.970;2023-02-15T12:13:57;102523.97;;;2.08;100.00
39823;BME280;25499;53.958;10.970;2023-02-15T12:16:23;102530.31;;;2.00;100.00
39823;BME280;25499;53.958;10.970;2023-02-15T12:18:52;102530.91;;;2.09;100.00
39823;BME280;25499;53.958;10.970;2023-02-15T12:21:29;102525.84;;;2.11;100.00
39823;BME280;25499;53.958;10.970;2023-02-15T12:24:23;102524.25;;;2.13;100.00
39823;BME280;25499;53.958;10.970;2023-02-15T12:27:17;102520.81;;;2.12;100.00
39823;BME280;25499;53.958;10.970;2023-02-15T12:29:56;102511.41;;;2.13;100.00
39823;BME280;25499;53.958;10.970;2023-02-15T12:34:51;102497.25;;;2.19;100.00
39823;BME280;25499;53.958;10.970;2023-02-15T12:37:29;102497.34;;;2.36;100.00
39823;BME280;25499;53.958;10.970;2023-02-15T12:40:00;102488.03;;;2.23;100.00
39823;BME280;25499;53.958;10.970;2023-02-15T12:42:28;102481.31;;;2.25;100.00
39823;BME280;25499;53.958;10.970;2023-02-15T12:45:04;102487.31;;;2.26;100.00
39823;BME280;25499;53.958;10.970;2023-02-15T12:47:44;102479.19;;;2.18;100.00
39823;BME280;25499;53.958;10.970;2023-02-15T12:50:21;102477.66;;;2.21;100.00
39823;BME280;25499;53.958;10.970;2023-02-15T12:52:48;102481.38;;;2.12;100.00
39823;BME280;25499;53.958;10.970;2023-02-15T12:55:24;102472.38;;;2.33;100.00
39823;BME280;25499;53.958;10.970;2023-02-15T12:58:18;102468.53;;;2.27;100.00
39823;BME280;25499;53.958;10.970;2023-02-15T13:00:44;102470.66;;;2.19;100.00
39823;BME280;25499;53.958;10.970;2023-02-15T13:03:23;102463.22;;;2.23;100.00
39823;BME280;25499;53.958;10.970;2023-02-15T13:05:55;102469.69;;;2.17;100.00
39823;BME280;25499;53.958;10.970;2023-02-15T13:08:27;102478.47;;;2.35;100.00
39823;BME280;25499;53.958;10.970;2023-02-15T13:10:56;102476.72;;;2.34;100.00
39823;BME280;25499;53.958;10.970;2023-02-15T13:13:29;102475.19;;;2.23;100.00
39823;BME280;25499;53.958;10.970;2023-02-15T13:16:04;102473.16;;;2.32;100.00
39823;BME280;25499;53.958;10.970;2023-02-15T13:20:56;102478.19;;;2.31;100.00
39823;BME280;25499;53.958;10.970;2023-02-15T13:23:28;102473.78;;;2.43;100.00
39823;BME280;25499;53.958;10.970;2023-02-15T13:25:57;102471.56;;;2.34;100.00
39823;BME280;25499;53.958;10.970;2023-02-15T13:28:31;102476.44;;;2.45;100.00
39823;BME280;25499;53.958;10.970;2023-02-15T13:31:00;102467.50;;;2.38;100.00
39823;BME280;25499;53.958;10.970;2023-02-15T13:33:36;102451.53;;;2.43;100.00
39823;BME280;25499;53.958;10.970;2023-02-15T13:36:09;102451.16;;;2.52;100.00
39823;BME280;25499;53.958;10.970;2023-02-15T13:38:43;102442.94;;;2.43;100.00
39823;BME280;25499;53.958;10.970;2023-02-15T13:41:32;102445.16;;;2.52;100.00
39823;BME280;25499;53.958;10.970;2023-02-15T13:44:16;102438.78;;;2.45;100.00
39823;BME280;25499;53.958;10.970;2023-02-15T13:47:02;102447.00;;;2.54;100.00
39823;BME280;25499;53.958;10.970;2023-02-15T13:49:44;102435.56;;;2.49;100.00
39823;BME280;25499;53.958;10.970;2023-02-15T13:52:23;102426.72;;;2.44;100.00
39823;BME280;25499;53.958;10.970;2023-02-15T13:55:14;102432.66;;;2.43;100.00
39823;BME280;25499;53.958;10.970;2023-02-15T13:57:56;102426.63;;;2.57;100.00
39823;BME280;25499;53.958;10.970;2023-02-15T14:08:30;102421.75;;;2.47;100.00
39823;BME280;25499;53.958;10.970;2023-02-15T14:19:30;102419.81;;;2.43;100.00
39823;BME280;25499;53.958;10.970;2023-02-15T14:22:07;102415.56;;;2.43;100.00
39823;BME280;25499;53.958;10.970;2023-02-15T14:24:42;102427.94;;;2.51;100.00
39823;BME280;25499;53.958;10.970;2023-02-15T14:29:57;102419.34;;;2.50;100.00
39823;BME280;25499;53.958;10.970;2023-02-15T14:32:36;102425.47;;;2.52;100.00
39823;BME280;25499;53.958;10.970;2023-02-15T14:35:05;102417.44;;;2.46;100.00
39823;BME280;25499;53.958;10.970;2023-02-15T14:43:25;102426.88;;;2.47;100.00
39823;BME280;25499;53.958;10.970;2023-02-15T14:46:00;102427.06;;;2.50;100.00
39823;BME280;25499;53.958;10.970;2023-02-15T14:48:31;102424.88;;;2.41;100.00
39823;BME280;25499;53.958;10.970;2023-02-15T14:50:59;102430.16;;;2.59;100.00
39823;BME280;25499;53.958;10.970;2023-02-15T15:01:37;102429.44;;;2.62;100.00
39823;BME280;25499;53.958;10.970;2023-02-15T15:04:06;102417.56;;;2.49;100.00
39823;BME280;25499;53.958;10.970;2023-02-15T15:06:35;102420.22;;;2.66;100.00
39823;BME280;25499;53.958;10.970;2023-02-15T15:09:22;102413.94;;;2.46;100.00
39823;BME280;25499;53.958;10.970;2023-02-15T15:11:52;102415.38;;;2.55;100.00
39823;BME280;25499;53.958;10.970;2023-02-15T15:17:01;102410.41;;;2.43;100.00
39823;BME280;25499;53.958;10.970;2023-02-15T15:22:22;102414.13;;;2.49;100.00
39823;BME280;25499;53.958;10.970;2023-02-15T15:25:39;102415.91;;;2.50;100.00
39823;BME280;25499;53.958;10.970;2023-02-15T15:27:56;102414.78;;;2.45;100.00
39823;BME280;25499;53.958;10.970;2023-02-15T15:47:01;102418.56;;;2.36;100.00
39823;BME280;25499;53.958;10.970;2023-02-15T15:49:26;102414.84;;;2.31;100.00
39823;BME280;25499;53.958;10.970;2023-02-15T15:51:54;102420.69;;;2.29;100.00
39823;BME280;25499;53.958;10.970;2023-02-15T15:54:24;102414.13;;;2.34;100.00
39823;BME280;25499;53.958;10.970;2023-02-15T15:56:53;102411.84;;;2.38;100.00
39823;BME280;25499;53.958;10.970;2023-02-15T15:59:23;102420.69;;;2.43;100.00
39823;BME280;25499;53.958;10.970;2023-02-15T16:01:51;102412.72;;;2.39;100.00
39823;BME280;25499;53.958;10.970;2023-02-15T16:04:28;102407.38;;;2.36;100.00
39823;BME280;25499;53.958;10.970;2023-02-15T16:07:13;102405.19;;;2.27;100.00
39823;BME280;25499;53.958;10.970;2023-02-15T16:09:38;102397.47;;;2.27;100.00
39823;BME280;25499;53.958;10.970;2023-02-15T16:12:04;102397.09;;;2.36;100.00
39823;BME280;25499;53.958;10.970;2023-02-15T16:14:40;102394.91;;;2.27;100.00
39823;BME280;25499;53.958;10.970;2023-02-15T16:17:12;102389.25;;;2.33;100.00
39823;BME280;25499;53.958;10.970;2023-02-15T16:19:42;102391.91;;;2.34;100.00
39823;BME280;25499;53.958;10.970;2023-02-15T16:22:15;102390.03;;;2.32;100.00
39823;BME280;25499;53.958;10.970;2023-02-15T16:24:51;102390.59;;;2.26;100.00
39823;BME280;25499;53.958;10.970;2023-02-15T16:29:46;102385.25;;;2.23;100.00
39823;BME280;25499;53.958;10.970;2023-02-15T16:35:00;102380.81;;;2.35;100.00
39823;BME280;25499;53.958;10.970;2023-02-15T16:37:31;102385.78;;;2.32;100.00
39823;BME280;25499;53.958;10.970;2023-02-15T16:39:57;102381.97;;;2.26;100.00
39823;BME280;25499;53.958;10.970;2023-02-15T16:42:23;102387.19;;;2.27;100.00
39823;BME280;25499;53.958;10.970;2023-02-15T16:45:05;102388.63;;;2.22;100.00
39823;BME280;25499;53.958;10.970;2023-02-15T16:47:39;102390.53;;;2.41;100.00
39823;BME280;25499;53.958;10.970;2023-02-15T16:50:06;102391.38;;;2.40;100.00
39823;BME280;25499;53.958;10.970;2023-02-15T16:52:31;102392.97;;;2.38;100.00
39823;BME280;25499;53.958;10.970;2023-02-15T16:55:03;102380.91;;;2.37;100.00
39823;BME280;25499;53.958;10.970;2023-02-15T16:57:35;102385.41;;;2.41;100.00
39823;BME280;25499;53.958;10.970;2023-02-15T17:00:14;102387.97;;;2.41;100.00
39823;BME280;25499;53.958;10.970;2023-02-15T17:02:58;102385.94;;;2.35;100.00
39823;BME280;25499;53.958;10.970;2023-02-15T17:05:23;102381.88;;;2.39;100.00
39823;BME280;25499;53.958;10.970;2023-02-15T17:08:05;102377.28;;;2.33;100.00
39823;BME280;25499;53.958;10.970;2023-02-15T17:10:34;102384.53;;;2.40;100.00
39823;BME280;25499;53.958;10.970;2023-02-15T17:13:21;102386.41;;;2.43;100.00
39823;BME280;25499;53.958;10.970;2023-02-15T17:19:09;102375.06;;;2.39;100.00
39823;BME280;25499;53.958;10.970;2023-02-15T17:21:46;102380.63;;;2.32;100.00
39823;BME280;25499;53.958;10.970;2023-02-15T17:24:20;102375.84;;;2.23;100.00
39823;BME280;25499;53.958;10.970;2023-02-15T17:26:54;102370.63;;;2.22;100.00
39823;BME280;25499;53.958;10.970;2023-02-15T17:29:37;102369.66;;;2.20;100.00
39823;BME280;25499;53.958;10.970;2023-02-15T17:32:09;102366.47;;;2.24;100.00
39823;BME280;25499;53.958;10.970;2023-02-15T17:37:22;102355.13;;;2.20;100.00
39823;BME280;25499;53.958;10.970;2023-02-15T17:39:48;102354.69;;;2.13;100.00
39823;BME280;25499;53.958;10.970;2023-02-15T17:42:14;102355.41;;;2.10;100.00
39823;BME280;25499;53.958;10.970;2023-02-15T17:44:39;102355.25;;;2.07;100.00
39823;BME280;25499;53.958;10.970;2023-02-15T17:47:04;102356.53;;;2.15;100.00
39823;BME280;25499;53.958;10.970;2023-02-15T17:49:30;102350.44;;;2.13;100.00
39823;BME280;25499;53.958;10.970;2023-02-15T17:52:00;102353.88;;;2.14;100.00
39823;BME280;25499;53.958;10.970;2023-02-15T17:54:27;102346.44;;;2.18;100.00
39823;BME280;25499;53.958;10.970;2023-02-15T17:57:12;102347.00;;;2.13;100.00
39823;BME280;25499;53.958;10.970;2023-02-15T17:59:38;102346.13;;;2.12;100.00
39823;BME280;25499;53.958;10.970;2023-02-15T18:02:22;102337.41;;;2.10;100.00
39823;BME280;25499;53.958;10.970;2023-02-15T18:05:12;102331.75;;;2.16;100.00
39823;BME280;25499;53.958;10.970;2023-02-15T18:07:56;102331.69;;;2.14;100.00
39823;BME280;25499;53.958;10.970;2023-02-15T18:10:40;102333.00;;;2.08;100.00
39823;BME280;25499;53.958;10.970;2023-02-15T18:13:24;102333.59;;;2.03;100.00
39823;BME280;25499;53.958;10.970;2023-02-15T18:15:49;102334.84;;;2.10;100.00
39823;BME280;25499;53.958;10.970;2023-02-15T18:18:15;102329.09;;;1.99;100.00
39823;BME280;25499;53.958;10.970;2023-02-15T18:20:41;102331.22;;;2.07;100.00
39823;BME280;25499;53.958;10.970;2023-02-15T18:23:16;102342.59;;;1.95;100.00
39823;BME280;25499;53.958;10.970;2023-02-15T18:25:42;102334.78;;;1.94;100.00
39823;BME280;25499;53.958;10.970;2023-02-15T18:28:08;102339.56;;;1.88;100.00
39823;BME280;25499;53.958;10.970;2023-02-15T18:30:35;102333.44;;;1.85;100.00
39823;BME280;25499;53.958;10.970;2023-02-15T18:33:01;102329.66;;;1.94;100.00
39823;BME280;25499;53.958;10.970;2023-02-15T18:35:31;102325.84;;;1.87;100.00
39823;BME280;25499;53.958;10.970;2023-02-15T18:37:58;102333.00;;;1.93;100.00
39823;BME280;25499;53.958;10.970;2023-02-15T18:40:26;102321.13;;;1.95;100.00
39823;BME280;25499;53.958;10.970;2023-02-15T18:42:52;102332.13;;;1.92;100.00
39823;BME280;25499;53.958;10.970;2023-02-15T18:45:28;102327.50;;;1.86;100.00
39823;BME280;25499;53.958;10.970;2023-02-15T18:47:57;102330.44;;;1.78;100.00
39823;BME280;25499;53.958;10.970;2023-02-15T18:50:24;102335.84;;;1.82;100.00
39823;BME280;25499;53.958;10.970;2023-02-15T18:52:51;102329.19;;;1.71;100.00
39823;BME280;25499;53.958;10.970;2023-02-15T18:55:25;102324.59;;;1.65;100.00
39823;BME280;25499;53.958;10.970;2023-02-15T18:57:53;102326.63;;;1.71;100.00
39823;BME280;25499;53.958;10.970;2023-02-15T19:00:22;102314.78;;;1.73;100.00
39823;BME280;25499;53.958;10.970;2023-02-15T19:02:49;102316.16;;;1.68;100.00
39823;BME280;25499;53.958;10.970;2023-02-15T19:05:15;102322.00;;;1.65;100.00
39823;BME280;25499;53.958;10.970;2023-02-15T19:07:42;102311.03;;;1.68;100.00
39823;BME280;25499;53.958;10.970;2023-02-15T19:10:22;102312.53;;;1.64;100.00
39823;BME280;25499;53.958;10.970;2023-02-15T19:12:48;102315.09;;;1.64;100.00
39823;BME280;25499;53.958;10.970;2023-02-15T19:15:21;102322.09;;;1.67;100.00
39823;BME280;25499;53.958;10.970;2023-02-15T19:17:47;102313.25;;;1.62;100.00
39823;BME280;25499;53.958;10.970;2023-02-15T19:20:25;102317.03;;;1.54;100.00
39823;BME280;25499;53.958;10.970;2023-02-15T19:22:52;102316.78;;;1.64;100.00
39823;BME280;25499;53.958;10.970;2023-02-15T19:25:25;102302.00;;;1.60;100.00
39823;BME280;25499;53.958;10.970;2023-02-15T19:27:53;102301.00;;;1.58;100.00
39823;BME280;25499;53.958;10.970;2023-02-15T19:30:25;102301.47;;;1.65;100.00
39823;BME280;25499;53.958;10.970;2023-02-15T19:32:52;102298.63;;;1.61;100.00
39823;BME280;25499;53.958;10.970;2023-02-15T19:35:20;102291.19;;;1.51;100.00
39823;BME280;25499;53.958;10.970;2023-02-15T19:37:49;102288.81;;;1.54;100.00
39823;BME280;25499;53.958;10.970;2023-02-15T19:40:25;102283.03;;;1.58;100.00
39823;BME280;25499;53.958;10.970;2023-02-15T19:42:51;102291.00;;;1.47;100.00
39823;BME280;25499;53.958;10.970;2023-02-15T19:45:19;102293.22;;;1.41;100.00
39823;BME280;25499;53.958;10.970;2023-02-15T19:47:45;102295.69;;;1.40;100.00
39823;BME280;25499;53.958;10.970;2023-02-15T19:50:16;102288.88;;;1.40;100.00
39823;BME280;25499;53.958;10.970;2023-02-15T19:52:42;102283.94;;;1.43;100.00
39823;BME280;25499;53.958;10.970;2023-02-15T19:55:21;102277.03;;;1.42;100.00
39823;BME280;25499;53.958;10.970;2023-02-15T19:57:49;102283.94;;;1.43;100.00
39823;BME280;25499;53.958;10.970;2023-02-15T20:00:17;102283.22;;;1.46;100.00
39823;BME280;25499;53.958;10.970;2023-02-15T20:02:44;102280.66;;;1.46;100.00
39823;BME280;25499;53.958;10.970;2023-02-15T20:05:10;102290.91;;;1.31;100.00
39823;BME280;25499;53.958;10.970;2023-02-15T20:07:35;102289.69;;;1.39;100.00
39823;BME280;25499;53.958;10.970;2023-02-15T20:10:01;102296.66;;;1.42;100.00
39823;BME280;25499;53.958;10.970;2023-02-15T20:12:27;102280.84;;;1.34;100.00
39823;BME280;25499;53.958;10.970;2023-02-15T20:14:54;102285.06;;;1.34;100.00
39823;BME280;25499;53.958;10.970;2023-02-15T20:17:20;102279.06;;;1.33;100.00
39823;BME280;25499;53.958;10.970;2023-02-15T20:19:46;102287.78;;;1.22;100.00
39823;BME280;25499;53.958;10.970;2023-02-15T20:22:22;102282.31;;;1.30;100.00
39823;BME280;25499;53.958;10.970;2023-02-15T20:24:49;102279.66;;;1.29;100.00
39823;BME280;25499;53.958;10.970;2023-02-15T20:27:16;102260.03;;;1.29;100.00
39823;BME280;25499;53.958;10.970;2023-02-15T20:29:42;102253.41;;;1.33;100.00
39823;BME280;25499;53.958;10.970;2023-02-15T20:32:09;102259.84;;;1.26;100.00
39823;BME280;25499;53.958;10.970;2023-02-15T20:34:34;102266.56;;;1.24;100.00
39823;BME280;25499;53.958;10.970;2023-02-15T20:37:00;102260.53;;;1.24;100.00
39823;BME280;25499;53.958;10.970;2023-02-15T20:39:26;102257.81;;;1.21;100.00
39823;BME280;25499;53.958;10.970;2023-02-15T20:41:51;102253.19;;;1.15;100.00
39823;BME280;25499;53.958;10.970;2023-02-15T20:44:25;102258.59;;;1.20;100.00
39823;BME280;25499;53.958;10.970;2023-02-15T20:46:57;102265.50;;;1.21;100.00
39823;BME280;25499;53.958;10.970;2023-02-15T20:49:23;102265.50;;;1.21;100.00
39823;BME280;25499;53.958;10.970;2023-02-15T20:51:51;102272.59;;;1.25;100.00
39823;BME280;25499;53.958;10.970;2023-02-15T20:54:19;102269.72;;;1.20;100.00
